createdAt,value
2023-03-05T00:02:37.865Z,2.50
2023-03-05T00:07:41.580Z,2.30
2023-03-05T00:12:46.853Z,3.10
2023-03-05T00:17:50.567Z,2.00
2023-03-05T00:22:54.225Z,1.88
2023-03-05T00:27:59.618Z,2.10
2023-03-05T00:33:03.268Z,2.47
2023-03-05T00:38:06.940Z,2.22
2023-03-05T00:43:12.604Z,2.20
2023-03-05T00:48:16.248Z,2.50
2023-03-05T00:53:20.362Z,2.55
2023-03-05T00:58:25.755Z,2.55
2023-03-05T01:03:29.636Z,2.60
2023-03-05T01:08:33.311Z,2.15
2023-03-05T01:13:38.660Z,3.00
2023-03-05T01:18:42.332Z,3.83
2023-03-05T01:23:45.943Z,2.78
2023-03-05T01:28:51.227Z,3.63
2023-03-05T01:33:55.168Z,2.65
2023-03-05T01:38:59.092Z,2.90
2023-03-05T01:44:04.532Z,2.80
2023-03-05T01:49:16.587Z,2.80
2023-03-05T01:54:23.403Z,3.17
2023-03-05T01:59:29.092Z,2.70
2023-03-05T02:04:38.869Z,2.77
2023-03-05T02:09:43.007Z,2.70
2023-03-05T02:14:51.888Z,2.60
2023-03-05T02:19:57.775Z,2.80
2023-03-05T02:25:03.706Z,2.80
2023-03-05T02:30:08.561Z,3.03
2023-03-05T02:35:12.198Z,2.70
2023-03-05T02:40:17.912Z,3.80
2023-03-05T02:45:21.727Z,3.53
2023-03-05T02:50:25.726Z,5.15
2023-03-05T02:55:31.058Z,3.95
2023-03-05T03:00:34.824Z,4.03
2023-03-05T03:05:38.474Z,3.38
2023-03-05T03:10:43.812Z,4.28
2023-03-05T03:15:47.673Z,3.70
2023-03-05T03:20:51.310Z,3.58
2023-03-05T03:25:56.604Z,3.92
2023-03-05T03:31:00.241Z,4.47
2023-03-05T03:36:05.183Z,4.45
2023-03-05T03:41:10.584Z,3.65
2023-03-05T03:46:14.248Z,3.63
2023-03-05T03:51:17.915Z,3.53
2023-03-05T03:56:24.352Z,3.00
2023-03-05T04:01:28.048Z,3.30
2023-03-05T04:06:31.781Z,2.83
2023-03-05T04:11:37.498Z,3.33
2023-03-05T04:16:41.125Z,2.90
2023-03-05T04:21:44.748Z,3.17
2023-03-05T04:26:50.046Z,2.95
2023-03-05T04:31:53.653Z,2.60
2023-03-05T04:36:57.313Z,2.45
2023-03-05T04:42:02.819Z,2.78
2023-03-05T04:47:06.703Z,2.60
2023-03-05T04:52:11.906Z,2.50
2023-03-05T04:57:17.203Z,2.75
2023-03-05T05:02:20.855Z,3.17
2023-03-05T05:07:24.490Z,2.58
2023-03-05T05:12:32.982Z,2.97
2023-03-05T05:17:36.760Z,3.03
2023-03-05T05:22:40.430Z,3.20
2023-03-05T05:27:45.712Z,2.55
2023-03-05T05:32:49.340Z,2.70
2023-03-05T05:37:53.637Z,3.20
2023-03-05T05:42:58.892Z,2.97
2023-03-05T05:48:02.549Z,2.95
2023-03-05T05:53:06.197Z,3.17
2023-03-05T05:58:11.464Z,3.13
2023-03-05T06:03:15.288Z,2.80
2023-03-05T06:08:19.239Z,3.17
2023-03-05T06:13:24.547Z,3.67
2023-03-05T06:18:28.303Z,3.17
2023-03-05T06:23:31.954Z,3.10
2023-03-05T06:28:37.276Z,3.30
2023-03-05T06:33:41.603Z,3.25
2023-03-05T06:38:46.524Z,3.30
2023-03-05T06:43:52.648Z,3.20
2023-03-05T06:48:57.359Z,3.15
2023-03-05T06:54:02.814Z,3.47
2023-03-05T06:59:08.484Z,4.00
2023-03-05T07:04:13.353Z,3.87
2023-03-05T07:09:17.173Z,3.28
2023-03-05T07:14:22.495Z,3.60
2023-03-05T07:19:26.135Z,3.78
2023-03-05T07:24:30.481Z,3.78
2023-03-05T07:29:35.765Z,2.97
2023-03-05T07:34:39.412Z,3.47
2023-03-05T07:39:43.226Z,3.38
2023-03-05T07:44:48.956Z,3.92
2023-03-05T07:49:52.656Z,3.37
2023-03-05T07:54:56.275Z,3.85
2023-03-05T08:00:01.559Z,3.90
2023-03-05T08:05:05.608Z,4.60
2023-03-05T08:10:10.616Z,4.03
2023-03-05T08:15:16.012Z,3.35
2023-03-05T08:20:19.962Z,4.07
2023-03-05T08:25:23.719Z,3.65
2023-03-05T08:30:29.046Z,3.55
2023-03-05T08:35:32.883Z,3.28
2023-03-05T08:40:36.588Z,4.30
2023-03-05T08:45:42.411Z,3.17
2023-03-05T08:50:46.061Z,4.45
2023-03-05T08:55:55.688Z,4.38
2023-03-05T09:01:01.955Z,2.85
2023-03-05T09:06:07.305Z,1.33
2023-03-05T09:11:13.337Z,0.95
2023-03-05T09:16:20.178Z,1.27
2023-03-05T09:21:23.919Z,0.70
2023-03-05T09:26:27.808Z,0.40
2023-03-05T09:31:33.154Z,0.60
2023-03-05T09:36:36.863Z,0.63
2023-03-05T09:42:03.256Z,0.80
2023-03-05T09:47:22.511Z,0.80
2023-03-05T09:52:35.497Z,0.77
2023-03-05T09:57:43.183Z,1.10
2023-03-05T10:02:52.957Z,1.13
2023-03-05T10:08:01.205Z,1.48
2023-03-05T10:13:12.440Z,1.90
2023-03-05T10:18:25.042Z,1.58
2023-03-05T10:24:06.620Z,1.10
2023-03-05T10:29:28.542Z,1.80
2023-03-05T10:35:00.170Z,1.70
2023-03-05T10:40:16.835Z,1.50
2023-03-05T10:50:29.014Z,1.33
2023-03-05T10:55:32.915Z,1.73
2023-03-05T11:00:36.673Z,1.58
2023-03-05T11:05:47.592Z,1.88
2023-03-05T11:11:04.473Z,1.25
2023-03-05T11:16:17.060Z,2.05
2023-03-05T11:21:25.952Z,1.25
2023-03-05T11:26:29.750Z,1.45
2023-03-05T11:31:34.267Z,1.63
2023-03-05T11:36:41.098Z,1.52
2023-03-05T11:41:48.628Z,1.67
2023-03-05T11:46:57.057Z,1.90
2023-03-05T11:52:12.011Z,2.05
2023-03-05T11:57:17.720Z,1.85
2023-03-05T12:02:24.834Z,2.27
2023-03-05T12:07:37.323Z,2.13
2023-03-05T12:12:48.318Z,2.10
2023-03-05T12:18:05.756Z,2.20
2023-03-05T12:23:15.219Z,2.15
2023-03-05T12:28:40.121Z,2.55
2023-03-05T12:33:44.971Z,2.15
2023-03-05T12:38:51.188Z,2.22
2023-03-05T12:44:26.552Z,2.03
2023-03-05T12:49:36.334Z,1.77
2023-03-05T12:54:44.209Z,2.13
2023-03-05T12:59:52.066Z,2.15
2023-03-05T13:05:00.859Z,2.55
2023-03-05T13:10:06.884Z,2.35
2023-03-05T13:15:17.161Z,2.35
2023-03-05T13:20:30.754Z,2.40
2023-03-05T13:25:36.076Z,2.20
2023-03-05T13:30:40.165Z,2.80
2023-03-05T13:35:46.737Z,3.28
2023-03-05T13:41:06.521Z,2.83
2023-03-05T13:46:10.270Z,3.05
2023-03-05T13:51:16.975Z,2.70
2023-03-05T13:56:23.329Z,2.25
2023-03-05T14:01:31.953Z,2.30
2023-03-05T14:06:49.099Z,2.85
2023-03-05T14:12:03.366Z,3.22
2023-03-05T14:17:33.373Z,2.60
2023-03-05T14:22:39.796Z,2.25
2023-03-05T14:32:54.633Z,2.50
2023-03-05T14:43:03.997Z,2.72
2023-03-05T14:48:09.034Z,3.03
2023-03-05T14:53:18.267Z,2.90
2023-03-05T14:58:25.877Z,3.35
2023-03-05T15:03:29.591Z,2.85
2023-03-05T15:08:33.648Z,2.42
2023-03-05T15:13:38.937Z,2.75
2023-03-05T15:18:42.554Z,2.65
2023-03-05T15:23:46.146Z,2.55
2023-03-05T15:28:51.449Z,2.38
2023-03-05T15:33:55.086Z,2.33
2023-03-05T15:38:58.739Z,2.30
2023-03-05T15:44:04.025Z,2.15
2023-03-05T15:49:07.666Z,2.30
2023-03-05T15:54:11.340Z,2.03
2023-03-05T15:59:16.719Z,1.17
2023-03-05T16:04:20.408Z,1.33
2023-03-05T16:09:24.129Z,1.63
2023-03-05T16:14:31.162Z,1.58
2023-03-05T16:19:37.679Z,1.73
2023-03-05T16:24:41.460Z,1.73
2023-03-05T16:29:46.740Z,1.58
2023-03-05T16:34:50.504Z,2.00
2023-03-05T16:39:54.128Z,1.48
2023-03-05T16:44:59.387Z,1.88
2023-03-05T16:50:03.325Z,2.15
2023-03-05T16:55:07.681Z,2.08
2023-03-05T17:00:14.326Z,2.10
2023-03-05T17:05:18.085Z,1.92
2023-03-05T17:10:21.790Z,1.80
2023-03-05T17:15:27.328Z,1.50
2023-03-05T17:20:31.023Z,1.37
2023-03-05T17:25:34.674Z,1.73
2023-03-05T17:30:40.577Z,1.48
2023-03-05T17:35:44.997Z,1.63
2023-03-05T17:40:50.828Z,1.30
2023-03-05T17:45:56.177Z,1.80
2023-03-05T17:51:00.128Z,2.13
2023-03-05T17:56:06.933Z,1.58
2023-03-05T18:01:12.220Z,1.80
2023-03-05T18:06:15.945Z,2.00
2023-03-05T18:11:20.330Z,1.35
2023-03-05T18:16:25.667Z,1.20
2023-03-05T18:21:29.373Z,1.97
2023-03-05T18:26:33.040Z,1.48
2023-03-05T18:31:38.338Z,1.35
2023-03-05T18:36:42.568Z,1.40
2023-03-05T18:41:46.357Z,1.52
2023-03-05T18:46:51.672Z,1.33
2023-03-05T18:51:55.313Z,1.10
2023-03-05T18:56:58.959Z,1.17
2023-03-05T19:02:04.219Z,1.30
2023-03-05T19:07:08.026Z,1.60
2023-03-05T19:12:11.670Z,1.40
2023-03-05T19:17:18.132Z,1.10
2023-03-05T19:22:22.265Z,1.48
2023-03-05T19:27:27.131Z,1.23
2023-03-05T19:32:33.428Z,1.38
2023-03-05T19:37:37.118Z,1.60
2023-03-05T19:42:40.836Z,1.35
2023-03-05T19:47:47.088Z,1.40
2023-03-05T19:52:50.736Z,1.55
2023-03-05T19:57:54.390Z,1.40
2023-03-05T20:02:59.633Z,1.60
2023-03-05T20:08:03.286Z,1.50
2023-03-05T20:13:06.945Z,1.67
2023-03-05T20:18:12.260Z,1.52
2023-03-05T20:23:15.851Z,2.07
2023-03-05T20:28:19.535Z,1.40
2023-03-05T20:33:25.380Z,1.73
2023-03-05T20:38:29.477Z,1.55
2023-03-05T20:43:34.867Z,1.40
2023-03-05T20:48:40.161Z,1.40
2023-03-05T20:53:44.673Z,1.17
2023-03-05T20:58:48.357Z,1.30
2023-03-05T21:03:53.677Z,1.40
2023-03-05T21:08:57.607Z,1.43
2023-03-05T21:14:01.260Z,1.35
2023-03-05T21:19:06.548Z,1.50
2023-03-05T21:24:10.239Z,1.57
2023-03-05T21:29:13.890Z,1.80
2023-03-05T21:34:19.188Z,1.52
2023-03-05T21:39:22.781Z,1.63
2023-03-05T21:44:26.468Z,1.63
2023-03-05T21:49:31.759Z,1.70
2023-03-05T21:54:35.397Z,1.93
2023-03-05T21:59:41.296Z,1.40
2023-03-05T22:04:47.157Z,1.48
2023-03-05T22:09:55.112Z,1.48
2023-03-05T22:14:58.736Z,1.40
2023-03-05T22:20:04.391Z,1.88
2023-03-05T22:25:08.939Z,2.10
2023-03-05T22:30:14.271Z,1.20
2023-03-05T22:35:19.765Z,1.73
2023-03-05T22:40:23.878Z,1.40
2023-03-05T22:45:30.152Z,1.80
2023-03-05T22:50:35.443Z,1.45
2023-03-05T22:55:40.417Z,1.80
2023-03-05T23:00:44.024Z,1.90
2023-03-05T23:05:49.312Z,1.73
2023-03-05T23:10:53.577Z,1.43
2023-03-05T23:15:57.250Z,1.40
2023-03-05T23:21:02.546Z,1.50
2023-03-05T23:26:06.437Z,1.73
2023-03-05T23:31:10.121Z,1.42
2023-03-05T23:36:15.440Z,1.55
2023-03-05T23:41:19.040Z,1.97
2023-03-05T23:46:22.805Z,1.52
2023-03-05T23:51:28.121Z,1.60
2023-03-05T23:56:31.820Z,1.47
